Time;durP1;ratioP1;P1;durP2;ratioP2;P2;SDS_P1;SDS_P2;PMS_P1;PMS_P2;Temp;Humidity;BMP_temperature;BMP_pressure;BME280_temperature;BME280_humidity;BME280_pressure;Samples;Min_cycle;Max_cycle;Signal;HPM_P1;HPM_P2
2023/11/14 00:02:04;;;;;;;17.10;12.10;;;;;;;6.78;90.17;98656.14;129248;1284;116375;-65
2023/11/14 00:05:06;;;;;;;20.90;12.80;;;;;;;6.78;90.21;98660.56;129349;1264;115114;-66
2023/11/14 00:08:08;;;;;;;17.50;11.90;;;;;;;6.79;90.43;98654.86;129411;1275;114823;-63
2023/11/14 00:11:11;;;;;;;17.40;12.10;;;;;;;6.82;90.62;98653.23;129551;1283;114737;-64
2023/11/14 00:14:13;;;;;;;20.00;12.70;;;;;;;6.85;90.86;98648.63;129502;1265;114795;-65
2023/11/14 00:17:16;;;;;;;16.20;11.20;;;;;;;6.88;90.83;98647.91;129412;1277;114739;-65
2023/11/14 00:20:18;;;;;;;19.90;11.80;;;;;;;6.91;91.04;98654.66;129511;1265;115416;-65
2023/11/14 00:23:20;;;;;;;20.80;12.70;;;;;;;6.94;91.11;98664.77;129694;1265;115192;-65
2023/11/14 00:26:22;;;;;;;19.10;13.10;;;;;;;6.96;91.16;98665.70;129546;1263;114743;-66
2023/11/14 00:29:25;;;;;;;19.10;13.00;;;;;;;6.97;91.10;98668.09;129505;1259;114736;-65
2023/11/14 00:32:28;;;;;;;18.30;12.90;;;;;;;6.96;91.20;98673.48;129516;1262;114727;-66
2023/11/14 00:35:30;;;;;;;23.00;13.30;;;;;;;6.93;90.72;98673.90;129581;1265;115208;-67
2023/11/14 00:38:32;;;;;;;20.60;13.10;;;;;;;6.86;90.52;98677.80;129620;1270;114809;-66
2023/11/14 00:41:35;;;;;;;18.20;12.50;;;;;;;6.79;90.49;98684.32;129283;1258;114796;-65
2023/11/14 00:44:38;;;;;;;23.40;14.30;;;;;;;6.69;90.21;98688.44;129572;1262;114811;-66
2023/11/14 00:47:40;;;;;;;21.20;14.80;;;;;;;6.57;89.85;98692.50;129760;1262;114744;-67
2023/11/14 00:50:42;;;;;;;20.20;13.80;;;;;;;6.46;89.76;98701.46;129634;1259;114743;-66
2023/11/14 00:53:44;;;;;;;25.10;15.60;;;;;;;6.36;89.61;98697.83;129321;1273;114894;-67
2023/11/14 00:56:46;;;;;;;21.50;14.00;;;;;;;6.25;89.56;98698.99;129697;1279;114813;-68
2023/11/14 00:59:48;;;;;;;23.90;15.90;;;;;;;6.14;89.53;98702.23;129673;1281;114752;-67
2023/11/14 01:02:53;;;;;;;24.90;15.20;;;;;;;6.01;89.60;98707.75;129301;1268;117762;-66
2023/11/14 01:05:55;;;;;;;19.20;14.10;;;;;;;5.91;89.57;98707.42;129325;1265;114919;-68
2023/11/14 01:09:00;;;;;;;19.70;14.00;;;;;;;5.81;89.56;98712.23;129539;1262;114764;-66
2023/11/14 01:12:03;;;;;;;20.90;14.00;;;;;;;5.72;89.70;98730.58;129564;1283;114732;-65
2023/11/14 01:15:05;;;;;;;25.60;15.40;;;;;;;5.65;89.82;98735.40;129567;1283;114784;-66
2023/11/14 01:18:07;;;;;;;24.80;14.80;;;;;;;5.57;89.63;98738.13;129570;1283;115213;-65
2023/11/14 01:21:16;;;;;;;24.60;15.30;;;;;;;5.50;89.61;98740.13;129590;1283;114753;-66
2023/11/14 01:24:19;;;;;;;28.80;16.30;;;;;;;5.41;89.61;98743.58;129604;1283;114753;-64
2023/11/14 01:27:21;;;;;;;23.80;15.00;;;;;;;5.33;89.56;98739.27;129341;1265;114813;-64
2023/11/14 01:30:24;;;;;;;23.80;14.70;;;;;;;5.24;89.61;98742.91;129486;1265;114757;-65
2023/11/14 01:33:26;;;;;;;22.30;14.70;;;;;;;5.14;89.65;98754.19;129719;1265;114763;-65
2023/11/14 01:36:28;;;;;;;24.30;13.20;;;;;;;5.06;89.72;98753.74;129185;1283;128379;-65
2023/11/14 01:39:31;;;;;;;19.90;12.40;;;;;;;5.00;89.98;98755.30;129517;1267;114783;-64
2023/11/14 01:42:33;;;;;;;17.30;11.40;;;;;;;4.99;90.63;98754.14;129491;1283;114831;-65
2023/11/14 01:45:35;;;;;;;17.00;11.30;;;;;;;5.03;91.32;98758.90;129633;1263;114738;-65
2023/11/14 01:48:37;;;;;;;21.20;11.60;;;;;;;5.09;92.00;98755.21;129543;1273;114810;-65
2023/11/14 01:51:40;;;;;;;19.00;10.00;;;;;;;5.17;92.33;98756.18;129477;1266;115172;-66
2023/11/14 01:54:43;;;;;;;16.10;9.30;;;;;;;5.28;93.09;98755.97;129565;1263;114754;-64
2023/11/14 01:57:46;;;;;;;11.70;8.30;;;;;;;5.42;93.64;98747.98;129625;1259;115292;-65
2023/11/14 02:00:48;;;;;;;13.20;6.70;;;;;;;5.56;94.14;98756.27;129547;1283;115186;-65
2023/11/14 02:03:50;;;;;;;11.20;5.50;;;;;;;5.71;95.10;98745.70;129374;1281;114806;-65
2023/11/14 02:06:52;;;;;;;10.40;5.90;;;;;;;5.88;95.31;98756.63;129493;1273;115214;-65
2023/11/14 02:09:55;;;;;;;12.70;4.30;;;;;;;6.04;95.72;98772.66;129386;1263;115171;-64
2023/11/14 02:12:57;;;;;;;12.60;4.10;;;;;;;6.19;96.11;98781.75;129491;1264;114845;-66
2023/11/14 02:15:59;;;;;;;13.00;4.90;;;;;;;6.33;96.11;98794.09;129437;1280;114763;-66
2023/11/14 02:19:01;;;;;;;12.80;3.50;;;;;;;6.44;96.22;98802.48;129323;1276;128879;-67
2023/11/14 02:22:03;;;;;;;8.30;3.20;;;;;;;6.54;96.48;98803.37;129385;1271;114763;-65
2023/11/14 02:25:07;;;;;;;16.00;3.50;;;;;;;6.63;96.46;98803.23;129598;1273;114735;-66
2023/11/14 02:28:09;;;;;;;6.20;3.40;;;;;;;6.72;96.69;98793.45;129414;1267;114891;-65
2023/11/14 02:31:11;;;;;;;9.80;3.70;;;;;;;6.83;96.88;98788.23;129563;1273;114659;-66
2023/11/14 02:34:13;;;;;;;7.70;3.70;;;;;;;6.93;97.29;98789.23;129663;1283;114824;-64
2023/11/14 02:37:15;;;;;;;12.90;3.60;;;;;;;7.03;97.01;98795.73;129536;1272;114791;-66
2023/11/14 02:40:20;;;;;;;19.50;4.10;;;;;;;7.10;97.25;98807.23;129511;1270;127766;-66
2023/11/14 02:43:22;;;;;;;10.50;3.50;;;;;;;7.15;97.21;98820.40;129346;1271;115263;-64
2023/11/14 02:46:24;;;;;;;12.80;4.50;;;;;;;7.18;97.01;98828.59;129410;1273;115220;-66
2023/11/14 02:49:30;;;;;;;16.20;5.60;;;;;;;7.19;96.66;98830.34;129577;1265;115335;-65
2023/11/14 02:52:37;;;;;;;15.70;5.00;;;;;;;7.20;96.85;98828.66;129393;1273;114786;-66
2023/11/14 02:55:43;;;;;;;12.30;4.70;;;;;;;7.21;96.84;98830.73;129148;1283;116500;-65
2023/11/14 02:58:45;;;;;;;11.30;3.60;;;;;;;7.20;96.81;98831.84;129393;1282;128799;-64
2023/11/14 03:01:47;;;;;;;17.20;3.50;;;;;;;7.19;96.71;98831.60;129334;1283;114990;-67
2023/11/14 03:04:50;;;;;;;14.40;4.30;;;;;;;7.17;96.66;98835.96;129571;1261;115259;-66
2023/11/14 03:07:52;;;;;;;10.80;3.80;;;;;;;7.13;96.43;98835.80;129308;1279;114869;-65
2023/11/14 03:10:56;;;;;;;16.30;3.80;;;;;;;7.11;96.27;98830.62;129439;1283;115180;-65
2023/11/14 03:13:58;;;;;;;18.40;4.70;;;;;;;7.08;96.37;98835.58;129476;1283;114742;-64
2023/11/14 03:17:00;;;;;;;16.90;3.60;;;;;;;7.06;96.62;98835.52;129390;1283;114904;-64
2023/11/14 03:20:04;;;;;;;15.10;3.70;;;;;;;7.05;96.56;98834.69;129511;1283;128848;-64
2023/11/14 03:23:06;;;;;;;12.10;3.90;;;;;;;7.04;96.58;98839.35;129485;1283;115209;-64
2023/11/14 03:26:09;;;;;;;15.10;4.00;;;;;;;7.05;96.65;98834.69;129419;1279;114761;-64
2023/11/14 03:29:10;;;;;;;12.30;3.50;;;;;;;7.06;96.96;98836.91;129589;1265;114715;-65
2023/11/14 03:32:13;;;;;;;12.20;3.50;;;;;;;7.10;97.05;98840.80;129370;1282;114798;-65
2023/11/14 03:35:15;;;;;;;7.40;3.40;;;;;;;7.12;97.21;98843.47;129354;1283;114840;-67
2023/11/14 03:38:18;;;;;;;9.40;3.10;;;;;;;7.16;97.12;98848.94;129369;1272;115103;-64
2023/11/14 03:41:20;;;;;;;9.80;3.60;;;;;;;7.20;97.49;98847.99;129640;1283;114735;-66
2023/11/14 03:44:22;;;;;;;15.40;4.00;;;;;;;7.25;97.77;98855.37;129057;1283;116575;-66
2023/11/14 03:47:25;;;;;;;10.50;4.80;;;;;;;7.30;97.97;98859.30;129404;1265;114992;-65
2023/11/14 03:50:27;;;;;;;19.10;8.20;;;;;;;7.35;97.72;98860.63;129383;1281;114721;-65
2023/11/14 03:53:29;;;;;;;14.30;9.30;;;;;;;7.40;98.02;98861.73;129485;1274;115163;-65
2023/11/14 03:56:31;;;;;;;21.80;10.20;;;;;;;7.45;97.92;98861.98;129418;1265;114838;-66
2023/11/14 03:59:33;;;;;;;16.80;7.40;;;;;;;7.51;98.15;98866.98;129542;1266;114758;-65
2023/11/14 04:02:38;;;;;;;14.40;5.70;;;;;;;7.56;98.31;98866.30;129551;1265;114774;-66
2023/11/14 04:05:41;;;;;;;21.30;6.70;;;;;;;7.60;98.19;98868.73;129174;1283;115263;-64
2023/11/14 04:08:43;;;;;;;14.50;4.70;;;;;;;7.64;98.00;98865.66;129496;1283;114763;-65
2023/11/14 04:11:46;;;;;;;15.90;4.80;;;;;;;7.66;98.18;98874.75;129524;1282;114838;-65
2023/11/14 04:14:49;;;;;;;15.10;4.40;;;;;;;7.69;97.99;98883.67;129393;1264;116065;-65
2023/11/14 04:17:51;;;;;;;12.90;3.60;;;;;;;7.71;97.82;98884.61;129712;1263;114755;-66
2023/11/14 04:20:54;;;;;;;10.20;3.50;;;;;;;7.70;97.51;98874.70;129537;1281;114828;-66
2023/11/14 04:23:57;;;;;;;11.40;3.20;;;;;;;7.69;97.61;98879.75;129543;1281;114875;-65
2023/11/14 04:27:00;;;;;;;13.80;3.60;;;;;;;7.66;97.47;98881.17;129626;1281;115414;-66
2023/11/14 04:30:03;;;;;;;8.20;2.90;;;;;;;7.62;97.22;98884.77;129547;1281;114837;-65
2023/11/14 04:33:06;;;;;;;8.60;2.70;;;;;;;7.57;97.01;98886.83;129479;1281;114952;-64
2023/11/14 04:36:09;;;;;;;10.10;2.80;;;;;;;7.52;96.94;98892.86;129555;1282;114761;-63
2023/11/14 04:39:12;;;;;;;17.80;2.80;;;;;;;7.48;96.81;98893.63;129667;1281;115340;-65
2023/11/14 04:42:14;;;;;;;7.40;2.90;;;;;;;7.43;96.87;98894.42;129621;1263;114804;-68
2023/11/14 04:45:16;;;;;;;13.10;3.00;;;;;;;7.39;96.77;98905.15;129555;1260;114993;-64
2023/11/14 04:48:19;;;;;;;13.10;2.80;;;;;;;7.34;96.54;98905.98;129236;1269;114758;-64
2023/11/14 04:51:21;;;;;;;11.10;3.00;;;;;;;7.29;96.38;98914.98;129266;1267;116497;-65
2023/11/14 04:54:23;;;;;;;8.10;2.50;;;;;;;7.25;96.48;98913.94;129460;1281;114844;-66
2023/11/14 04:57:26;;;;;;;7.50;2.50;;;;;;;7.22;96.57;98916.95;129479;1258;114890;-64
2023/11/14 05:00:31;;;;;;;9.00;3.40;;;;;;;7.21;96.60;98918.64;129373;1266;128247;-64
2023/11/14 05:03:33;;;;;;;;;;;;;;;7.21;96.73;98923.07;129374;1281;114908;-64
2023/11/14 05:06:35;;;;;;;12.60;3.30;;;;;;;7.21;96.69;98927.71;129470;1278;114878;-64
2023/11/14 05:09:38;;;;;;;13.50;4.40;;;;;;;7.22;96.93;98934.34;129484;1262;114895;-63
2023/11/14 05:12:40;;;;;;;14.40;3.50;;;;;;;7.25;97.07;98931.90;129620;1283;114858;-64
2023/11/14 05:15:42;;;;;;;9.40;3.20;;;;;;;7.27;96.99;98941.19;129365;1283;114739;-64
2023/11/14 05:18:45;;;;;;;13.10;3.10;;;;;;;7.28;96.73;98946.23;129567;1283;115410;-65
2023/11/14 05:21:47;;;;;;;12.40;3.20;;;;;;;7.31;97.04;98953.03;129247;1267;128495;-65
2023/11/14 05:24:49;;;;;;;8.60;2.70;;;;;;;7.33;96.90;98957.00;129379;1283;115119;-65
2023/11/14 05:27:51;;;;;;;14.90;2.50;;;;;;;7.35;96.99;98957.41;129452;1283;114849;-65
2023/11/14 05:30:53;;;;;;;10.00;2.30;;;;;;;7.36;96.65;98955.59;129213;1267;114836;-65
2023/11/14 05:33:55;;;;;;;17.30;3.10;;;;;;;7.38;96.95;98953.50;129573;1280;115034;-64
2023/11/14 05:36:57;;;;;;;13.10;2.70;;;;;;;7.42;97.04;98947.95;129501;1265;115114;-64
2023/11/14 05:40:00;;;;;;;14.00;2.80;;;;;;;7.46;97.12;98945.58;129322;1264;114915;-65
2023/11/14 05:43:02;;;;;;;12.70;2.70;;;;;;;7.50;96.82;98943.58;129456;1264;115121;-65
2023/11/14 05:46:05;;;;;;;13.50;2.60;;;;;;;7.54;96.85;98944.26;129423;1282;115359;-65
2023/11/14 05:49:07;;;;;;;8.80;2.30;;;;;;;7.56;96.80;98936.84;129558;1283;114909;-64
2023/11/14 05:52:10;;;;;;;16.40;3.00;;;;;;;7.57;96.60;98940.14;129425;1264;114786;-64
2023/11/14 05:55:13;;;;;;;14.00;2.90;;;;;;;7.56;96.15;98941.83;129454;1273;114805;-64
2023/11/14 05:58:15;;;;;;;9.80;2.30;;;;;;;7.53;96.07;98938.98;129517;1279;114775;-64
2023/11/14 06:01:17;;;;;;;12.10;2.90;;;;;;;7.49;95.88;98947.37;129597;1274;114793;-64
2023/11/14 06:04:21;;;;;;;9.60;2.70;;;;;;;7.46;95.80;98958.41;129606;1276;114741;-64
2023/11/14 06:07:23;;;;;;;17.00;3.50;;;;;;;7.42;95.54;98961.45;129682;1261;115292;-64
2023/11/14 06:10:25;;;;;;;13.20;2.90;;;;;;;7.40;95.72;98969.39;129401;1266;114814;-64
2023/11/14 06:13:27;;;;;;;15.30;3.90;;;;;;;7.39;95.58;98974.20;129686;1277;114741;-63
2023/11/14 06:16:30;;;;;;;21.20;6.90;;;;;;;7.40;95.65;98977.91;129507;1267;114946;-65
2023/11/14 06:19:36;;;;;;;15.30;4.30;;;;;;;7.40;95.65;98982.19;129607;1273;115370;-64
2023/11/14 06:22:39;;;;;;;8.30;2.80;;;;;;;7.38;95.00;98986.19;129498;1264;128876;-65
2023/11/14 06:25:41;;;;;;;10.50;3.40;;;;;;;7.36;95.30;98990.56;129396;1260;114730;-65
2023/11/14 06:28:44;;;;;;;14.30;3.50;;;;;;;7.35;95.35;98991.20;129430;1273;114748;-70
2023/11/14 06:31:46;;;;;;;11.10;3.00;;;;;;;7.33;95.24;99003.56;129695;1263;114771;-65
2023/11/14 06:34:48;;;;;;;14.40;3.50;;;;;;;7.31;94.95;99005.95;129674;1279;114792;-66
2023/11/14 06:37:52;;;;;;;14.50;3.10;;;;;;;7.32;94.87;99003.25;129346;1283;116397;-66
2023/11/14 06:40:55;;;;;;;14.10;2.90;;;;;;;7.33;94.99;99001.55;129365;1282;128579;-64
2023/11/14 06:43:57;;;;;;;12.60;2.70;;;;;;;7.36;94.62;99007.80;129501;1264;115340;-64
2023/11/14 06:47:00;;;;;;;8.00;3.20;;;;;;;7.39;94.87;99004.59;129521;1283;114802;-65
2023/11/14 06:50:03;;;;;;;8.30;3.00;;;;;;;7.44;95.03;99004.14;129671;1264;114739;-66
2023/11/14 06:53:09;;;;;;;19.40;3.00;;;;;;;7.52;95.50;99003.86;129588;1260;114766;-66
2023/11/14 06:56:13;;;;;;;13.60;3.00;;;;;;;7.63;95.32;99013.90;129814;1264;115417;-64
2023/11/14 06:59:15;;;;;;;16.30;3.20;;;;;;;7.73;95.34;99014.93;129907;1263;127796;-65
2023/11/14 07:02:18;;;;;;;17.70;3.90;;;;;;;7.82;94.85;99016.87;129641;1263;114818;-64
2023/11/14 07:05:21;;;;;;;16.40;3.60;;;;;;;7.96;95.10;99011.98;129570;1273;114765;-64
2023/11/14 07:08:24;;;;;;;14.90;3.40;;;;;;;8.12;95.35;99014.20;129488;1282;115334;-67
2023/11/14 07:11:26;;;;;;;15.90;4.00;;;;;;;8.28;95.44;99015.73;129609;1283;114828;-64
2023/11/14 07:14:32;;;;;;;16.30;4.40;;;;;;;8.42;94.76;99018.78;129505;1282;114758;-65
2023/11/14 07:17:35;;;;;;;17.70;3.90;;;;;;;8.56;95.05;99010.02;129290;1280;127836;-64
2023/11/14 07:20:37;;;;;;;15.60;3.70;;;;;;;8.70;94.54;99010.91;129476;1276;114708;-65
2023/11/14 07:23:40;;;;;;;14.30;4.10;;;;;;;8.88;94.51;99016.50;129630;1259;114740;-63
2023/11/14 07:26:43;;;;;;;16.40;4.00;;;;;;;9.12;94.60;99009.48;129636;1263;114802;-67
2023/11/14 07:29:46;;;;;;;12.50;4.50;;;;;;;9.38;94.38;99001.92;129525;1282;114900;-65
2023/11/14 07:32:48;;;;;;;11.80;4.90;;;;;;;9.63;94.02;99004.20;129543;1261;114712;-65
2023/11/14 07:35:50;;;;;;;22.90;4.40;;;;;;;9.87;93.97;99000.65;129620;1264;114741;-65
2023/11/14 07:38:52;;;;;;;16.00;5.40;;;;;;;10.07;93.40;98994.85;129621;1264;114771;-66
2023/11/14 07:41:56;;;;;;;22.20;6.00;;;;;;;10.23;92.96;98986.95;129443;1282;115282;-66
2023/11/14 07:44:58;;;;;;;16.60;4.90;;;;;;;10.37;92.52;98994.98;129559;1264;114725;-66
2023/11/14 07:48:00;;;;;;;14.50;3.70;;;;;;;10.45;91.93;98989.22;129549;1264;114746;-65
2023/11/14 07:51:03;;;;;;;10.80;3.70;;;;;;;10.52;91.39;98986.59;129566;1259;115411;-66
2023/11/14 07:54:06;;;;;;;9.40;2.90;;;;;;;10.57;91.32;98985.56;129483;1268;114833;-66
2023/11/14 07:57:08;;;;;;;10.30;3.20;;;;;;;10.59;90.53;98984.88;129554;1260;114822;-65
2023/11/14 08:00:12;;;;;;;13.20;3.00;;;;;;;10.60;90.58;98982.97;129653;1261;115391;-65
2023/11/14 08:03:14;;;;;;;15.10;3.70;;;;;;;10.64;90.26;98981.69;129347;1282;114978;-67
2023/11/14 08:06:17;;;;;;;13.10;3.20;;;;;;;10.67;89.87;98978.81;129500;1277;114738;-66
2023/11/14 08:09:20;;;;;;;20.00;5.50;;;;;;;10.69;89.48;98981.84;129557;1276;114748;-65
2023/11/14 08:12:23;;;;;;;19.90;4.80;;;;;;;10.76;90.00;98997.27;129584;1264;115408;-67
2023/11/14 08:15:25;;;;;;;15.80;4.60;;;;;;;10.86;89.84;98993.67;129679;1263;114799;-67
2023/11/14 08:18:27;;;;;;;11.60;3.20;;;;;;;11.01;89.65;98998.29;129215;1282;128442;-67
2023/11/14 08:21:29;;;;;;;11.70;3.20;;;;;;;11.15;89.09;99002.15;129535;1264;115190;-66
2023/11/14 08:24:31;;;;;;;11.60;3.40;;;;;;;11.27;88.82;99006.66;129426;1264;116320;-67
2023/11/14 08:27:34;;;;;;;12.90;3.50;;;;;;;11.36;88.31;99007.77;129409;1270;114852;-68
2023/11/14 08:30:37;;;;;;;19.10;4.90;;;;;;;11.45;87.97;99006.60;129588;1279;114812;-67
2023/11/14 08:33:39;;;;;;;38.30;9.20;;;;;;;11.55;87.38;99012.77;129498;1264;115115;-65
2023/11/14 08:36:41;;;;;;;15.30;5.80;;;;;;;11.66;87.46;99020.77;129689;1269;114682;-66
2023/11/14 08:39:43;;;;;;;18.20;7.00;;;;;;;11.76;87.19;99028.59;129581;1267;128876;-65
2023/11/14 08:42:48;;;;;;;16.70;6.80;;;;;;;11.87;86.92;99034.88;129449;1259;114830;-66
2023/11/14 08:45:51;;;;;;;11.80;7.00;;;;;;;12.02;86.88;99037.96;130153;1261;114763;-66
2023/11/14 08:48:54;;;;;;;13.60;4.60;;;;;;;12.10;86.06;99045.95;129675;1264;114830;-64
2023/11/14 08:51:56;;;;;;;12.30;4.10;;;;;;;12.20;86.04;99049.98;129649;1259;115353;-66
2023/11/14 08:54:58;;;;;;;12.80;3.40;;;;;;;12.33;86.02;99050.44;126922;1264;3811944;-66
2023/11/14 08:58:01;;;;;;;10.80;3.80;;;;;;;12.42;85.73;99052.11;129564;1274;128844;-65
2023/11/14 09:01:04;;;;;;;12.90;4.40;;;;;;;12.44;84.85;99052.29;129596;1274;114750;-64
2023/11/14 09:04:10;;;;;;;18.50;4.80;;;;;;;12.44;84.28;99050.64;129591;1259;114728;-65
2023/11/14 09:07:12;;;;;;;15.10;4.50;;;;;;;12.50;84.15;99056.51;129343;1269;114918;-65
2023/11/14 09:10:15;;;;;;;10.00;3.00;;;;;;;12.57;83.80;99063.30;129494;1261;114736;-64
2023/11/14 09:13:17;;;;;;;10.70;3.40;;;;;;;12.63;83.47;99066.05;129428;1264;114837;-65
2023/11/14 09:16:19;;;;;;;11.40;4.00;;;;;;;12.73;83.73;99072.62;129511;1264;114755;-65
2023/11/14 09:19:22;;;;;;;12.60;3.80;;;;;;;12.79;83.07;99068.39;129248;1260;115279;-66
2023/11/14 09:22:28;;;;;;;15.90;3.40;;;;;;;12.85;82.81;99057.00;129508;1264;114732;-66
2023/11/14 09:25:31;;;;;;;13.40;3.40;;;;;;;12.91;82.34;99054.39;129332;1261;115248;-64
2023/11/14 09:28:35;;;;;;;15.50;3.10;;;;;;;12.95;82.18;99041.14;129535;1261;114742;-64
2023/11/14 09:31:37;;;;;;;12.80;3.60;;;;;;;13.02;82.14;99043.10;129454;1267;114809;-65
2023/11/14 09:34:39;;;;;;;12.00;3.70;;;;;;;13.09;82.15;99041.45;129530;1264;114838;-65
2023/11/14 09:37:42;;;;;;;13.50;3.50;;;;;;;13.14;81.64;99040.35;129428;1261;115396;-65
2023/11/14 09:40:44;;;;;;;10.00;3.20;;;;;;;13.17;81.24;99035.95;129371;1264;114732;-65
2023/11/14 09:43:46;;;;;;;11.20;3.50;;;;;;;13.20;81.03;99036.98;129366;1264;115199;-65
2023/11/14 09:46:50;;;;;;;14.70;4.30;;;;;;;13.21;80.82;99033.54;129249;1267;114927;-65
2023/11/14 09:49:52;;;;;;;11.30;4.20;;;;;;;13.21;80.50;99038.86;129240;1265;114742;-65
2023/11/14 09:52:54;;;;;;;14.20;4.00;;;;;;;13.21;80.13;99054.13;129575;1264;115067;-67
2023/11/14 09:55:57;;;;;;;14.70;3.50;;;;;;;13.21;79.95;99048.78;129623;1265;114813;-65
2023/11/14 09:59:00;;;;;;;9.10;3.50;;;;;;;13.20;79.54;99051.73;129544;1264;114762;-66
2023/11/14 10:02:03;;;;;;;16.20;3.60;;;;;;;13.19;79.68;99051.41;129240;1282;114887;-65
2023/11/14 10:05:07;;;;;;;11.30;3.20;;;;;;;13.20;79.59;99041.45;129549;1264;114811;-64
2023/11/14 10:08:15;;;;;;;8.70;3.60;;;;;;;13.23;79.26;99036.41;129653;1259;127905;-65
2023/11/14 10:11:17;;;;;;;11.00;3.40;;;;;;;13.25;78.79;99038.80;129395;1282;116509;-65
2023/11/14 10:14:19;;;;;;;12.00;3.50;;;;;;;13.26;78.91;99044.11;129611;1264;115406;-64
2023/11/14 10:17:26;;;;;;;11.70;3.50;;;;;;;13.27;78.94;99039.84;129752;1264;114820;-65
2023/11/14 10:20:37;;;;;;;12.70;3.30;;;;;;;13.30;78.98;99042.65;129783;1264;114753;-65
2023/11/14 10:23:39;;;;;;;14.20;3.70;;;;;;;13.32;78.54;99039.98;129756;1264;126867;-64
2023/11/14 10:26:53;;;;;;;11.40;3.60;;;;;;;13.31;78.31;99051.77;129665;1259;114822;-60
2023/11/14 10:29:55;;;;;;;10.30;3.20;;;;;;;13.29;77.91;99047.63;129388;1264;114821;-60
2023/11/14 10:32:57;;;;;;;10.40;3.00;;;;;;;13.29;77.92;99058.49;129481;1282;114798;-63
2023/11/14 10:36:08;;;;;;;11.20;3.80;;;;;;;13.28;77.30;99056.83;129288;1282;114865;-61
2023/11/14 10:39:10;;;;;;;14.50;4.40;;;;;;;13.26;77.22;99038.14;129397;1283;128409;-61
2023/11/14 10:42:12;;;;;;;9.60;2.90;;;;;;;13.26;77.06;99030.81;129539;1264;114721;-60
2023/11/14 10:45:15;;;;;;;10.40;3.50;;;;;;;13.23;76.72;99026.16;129422;1259;114878;-59
2023/11/14 10:48:21;;;;;;;11.50;3.20;;;;;;;13.22;76.71;99026.97;129383;1263;114844;-59
2023/11/14 10:51:23;;;;;;;13.90;3.20;;;;;;;13.20;76.52;99021.93;129338;1267;114839;-59
2023/11/14 10:54:27;;;;;;;9.10;3.20;;;;;;;13.16;76.82;99019.73;129492;1265;115154;-59
2023/11/14 10:57:30;;;;;;;8.80;3.00;;;;;;;13.16;76.42;99022.46;129017;1277;115157;-60
2023/11/14 11:00:34;;;;;;;14.20;3.40;;;;;;;13.12;76.13;99017.39;129278;1267;114848;-60
2023/11/14 11:03:36;;;;;;;10.30;2.70;;;;;;;13.10;76.16;99004.81;130595;1259;115239;-69
2023/11/14 11:06:39;;;;;;;9.50;2.30;;;;;;;13.10;75.99;99001.97;129957;1262;114750;-72
2023/11/14 11:09:41;;;;;;;10.50;3.10;;;;;;;13.11;76.08;98999.57;130103;1263;116454;-75
2023/11/14 11:12:44;;;;;;;8.80;2.90;;;;;;;13.15;76.18;98995.32;129936;1263;114851;-73
2023/11/14 11:15:48;;;;;;;9.70;3.20;;;;;;;13.17;75.71;98994.38;129855;1281;128068;-70
2023/11/14 11:18:50;;;;;;;6.40;2.10;;;;;;;13.19;75.59;99004.45;130028;1264;115106;-71
2023/11/14 11:21:59;;;;;;;9.40;2.80;;;;;;;13.22;75.51;98996.52;129725;1267;114825;-71
2023/11/14 11:25:26;;;;;;;8.60;2.40;;;;;;;13.33;75.49;98991.29;130082;1270;114795;-71
2023/11/14 11:28:32;;;;;;;14.00;3.10;;;;;;;13.49;75.12;98992.49;129787;1267;114842;-70
2023/11/14 11:31:34;;;;;;;7.70;2.60;;;;;;;13.59;74.98;99003.95;130046;1261;128556;-70
2023/11/14 11:34:36;;;;;;;9.20;2.70;;;;;;;13.65;74.59;98999.48;129969;1257;114786;-70
2023/11/14 11:37:58;;;;;;;7.50;2.90;;;;;;;13.66;74.21;99004.36;130107;1260;114738;-71
2023/11/14 11:41:07;;;;;;;9.50;3.20;;;;;;;13.61;74.02;98997.81;129940;1268;115361;-71
2023/11/14 11:44:11;;;;;;;7.70;3.50;;;;;;;13.55;73.56;99011.11;129693;1281;114957;-71
2023/11/14 11:47:34;;;;;;;7.90;2.70;;;;;;;13.48;73.58;99004.25;129844;1263;114849;-71
2023/11/14 11:50:37;;;;;;;6.80;2.80;;;;;;;13.37;73.50;99006.79;129886;1277;128684;-70
2023/11/14 11:53:40;;;;;;;10.40;2.90;;;;;;;13.26;73.33;98988.47;130041;1262;115221;-70
2023/11/14 11:56:42;;;;;;;10.00;3.40;;;;;;;13.19;73.51;98991.20;129922;1263;115310;-71
2023/11/14 11:59:44;;;;;;;8.50;2.60;;;;;;;13.15;73.45;99006.36;129921;1271;114709;-70
2023/11/14 12:02:46;;;;;;;8.40;2.80;;;;;;;13.11;73.23;99017.64;130001;1263;114770;-69
2023/11/14 12:05:48;;;;;;;7.60;2.90;;;;;;;13.06;73.32;99015.00;129888;1260;114782;-67
2023/11/14 12:08:52;;;;;;;14.50;3.60;;;;;;;13.01;73.25;99016.82;129898;1278;114787;-72
2023/11/14 12:11:54;;;;;;;12.70;3.40;;;;;;;12.98;73.28;99002.42;129740;1273;114763;-70
2023/11/14 12:14:56;;;;;;;11.60;3.30;;;;;;;12.95;73.38;98998.71;129928;1271;114802;-67
2023/11/14 12:17:58;;;;;;;15.00;3.70;;;;;;;12.93;73.40;98994.52;129531;1268;114927;-64
2023/11/14 12:21:00;;;;;;;9.70;3.20;;;;;;;12.91;73.46;98994.46;129486;1281;114992;-67
2023/11/14 12:24:03;;;;;;;12.50;3.70;;;;;;;12.93;73.29;99000.83;133666;1262;114655;-65
2023/11/14 12:27:06;;;;;;;14.10;4.70;;;;;;;12.97;73.53;99006.58;129691;1262;114761;-65
2023/11/14 12:30:09;;;;;;;10.40;2.80;;;;;;;13.03;73.69;99013.46;129488;1263;114875;-65
2023/11/14 12:33:15;;;;;;;14.20;3.70;;;;;;;13.05;73.77;99020.13;129431;1268;114788;-62
2023/11/14 12:36:24;;;;;;;8.30;3.50;;;;;;;13.05;73.70;99021.52;129540;1281;115089;-65
2023/11/14 12:39:26;;;;;;;8.40;2.70;;;;;;;13.00;73.63;99022.46;129340;1269;114861;-63
2023/11/14 12:42:32;;;;;;;9.90;4.00;;;;;;;12.92;73.33;99022.90;129774;1273;114924;-64
2023/11/14 12:45:47;;;;;;;13.60;4.00;;;;;;;12.87;73.25;99024.77;129322;1265;128935;-60
2023/11/14 12:49:17;;;;;;;10.80;3.30;;;;;;;12.82;73.10;99033.94;129715;1270;115167;-64
2023/11/14 12:52:24;;;;;;;14.30;3.90;;;;;;;12.79;73.10;99031.34;129230;1263;115324;-63
2023/11/14 12:55:26;;;;;;;10.20;2.90;;;;;;;12.81;73.39;99026.91;129552;1263;115235;-64
2023/11/14 12:58:28;;;;;;;19.90;3.30;;;;;;;12.84;73.09;99017.16;129487;1274;114802;-64
2023/11/14 13:01:49;;;;;;;11.20;3.60;;;;;;;12.84;73.14;99013.54;129550;1281;114835;-64
2023/11/14 13:04:51;;;;;;;13.50;3.30;;;;;;;12.86;72.97;99000.85;129598;1263;115144;-60
2023/11/14 13:07:56;;;;;;;16.20;3.50;;;;;;;12.85;72.87;98987.46;129505;1266;114798;-59
2023/11/14 13:10:58;;;;;;;10.50;3.20;;;;;;;12.79;72.88;98977.75;129571;1263;115347;-62
2023/11/14 13:14:02;;;;;;;8.80;3.40;;;;;;;12.72;72.75;98976.84;129624;1266;114689;-60
2023/11/14 13:17:04;;;;;;;14.00;3.20;;;;;;;12.67;72.89;98971.55;129637;1264;114711;-65
2023/11/14 13:20:07;;;;;;;13.50;3.40;;;;;;;12.63;72.90;98975.63;129547;1275;114789;-59
2023/11/14 13:23:10;;;;;;;10.80;2.70;;;;;;;12.58;72.88;98975.25;129671;1267;115151;-65
2023/11/14 13:26:12;;;;;;;10.00;3.20;;;;;;;12.58;73.04;98976.52;129887;1263;114804;-59
2023/11/14 13:29:15;;;;;;;12.80;3.80;;;;;;;12.59;73.14;98973.08;129529;1267;114920;-61
2023/11/14 13:32:17;;;;;;;14.00;3.70;;;;;;;12.57;73.04;98970.86;129678;1271;115078;-58
2023/11/14 13:35:19;;;;;;;8.90;3.40;;;;;;;12.51;72.87;98968.09;129448;1271;114727;-65
2023/11/14 13:38:21;;;;;;;17.00;3.40;;;;;;;12.44;72.90;98971.71;129586;1264;115084;-63
2023/11/14 13:41:28;;;;;;;13.70;3.60;;;;;;;12.36;73.01;98962.27;129301;1266;114661;-63
2023/11/14 13:44:30;;;;;;;18.70;4.20;;;;;;;12.28;72.73;98955.21;129566;1271;114720;-65
2023/11/14 13:47:32;;;;;;;15.50;3.60;;;;;;;12.21;72.67;98955.44;129614;1266;114746;-59
2023/11/14 13:50:35;;;;;;;14.70;3.60;;;;;;;12.12;72.54;98953.29;129529;1263;114852;-61
2023/11/14 13:53:39;;;;;;;15.70;3.40;;;;;;;12.00;72.52;98955.58;129598;1263;114956;-61
2023/11/14 13:56:42;;;;;;;13.20;3.10;;;;;;;11.89;72.76;98961.28;129291;1269;128482;-64
2023/11/14 13:59:45;;;;;;;11.80;2.90;;;;;;;11.78;72.65;98962.98;129298;1263;115183;-63